Latest Weather Observations for Pallamana

IDS60901

Issued at 2:45 pm CST Wednesday 30 July 2014 (issued every 10 minutes, with the page automatically refreshed every 10 minutes)

About weather observations | Map of Adelaide area stations | Latest observations for Adelaide area | Other Formats
Station Details ID: 024584 Name: PALLAMANA AERODROME Lat: -35.06 Lon: 139.23 Height: 45.0 m
Data from the previous 72 hours. | See also: Recent months at Pallamana
Date/Time
CST
Tmp

°C
App
Tmp
°C
Dew
Point
°C
Rel
Hum
%
Delta-T

°C
Wind Press
QNH
hPa
Press
MSL
hPa
Rain
since
9 am
mm
Dir
 
Spd
km/h
Gust
km/h
Spd
kts
Gust
kts
30/02:30pm 16.7 14.5 14.4 86 1.3 NW 19 28 10 15 1015.1 1015.1 0.0
30/02:00pm 17.2 15.2 15.0 87 1.3 WNW 19 24 10 13 1015.3 - 0.0
30/01:30pm 17.1 14.0 14.5 85 1.5 WNW 24 39 13 21 1015.6 1015.6 0.0
30/01:00pm 16.9 13.7 14.3 85 1.5 WNW 24 37 13 20 1015.9 - 0.0
30/12:30pm 17.1 14.0 14.5 85 1.5 WNW 24 33 13 18 1016.3 1016.3 0.0
30/12:00pm 17.2 12.2 13.5 79 2.1 NW 32 43 17 23 1016.7 1016.7 0.0
30/11:30am 16.5 11.7 11.7 73 2.6 WNW 28 37 15 20 1017.4 1017.4 0.0
30/11:00am 16.5 13.2 11.5 72 2.7 NW 20 35 11 19 1017.7 - 0.0
30/10:30am 15.5 12.1 11.2 75 2.3 WNW 20 32 11 17 1018.0 1018.0 0.0
30/10:00am 15.0 12.7 11.9 82 1.7 NW 15 20 8 11 1018.2 - 0.0
30/09:30am 14.9 12.1 11.5 80 1.8 WNW 17 22 9 12 1018.0 1018.0 0.0
30/09:00am 15.0 12.4 11.9 82 1.7 NW 17 24 9 13 1017.8 1017.8 0.6
30/08:30am 14.1 11.4 11.7 85 1.3 NW 17 22 9 12 1017.8 1017.8 0.6
30/08:00am 14.1 11.3 11.3 83 1.5 NW 17 28 9 15 1017.7 - 0.6
30/07:30am 14.2 8.3 10.4 78 2.0 NW 32 41 17 22 1017.5 1017.5 0.6
30/07:26am 14.1 8.0 10.3 78 2.0 NW 33 41 18 22 1017.4 - 0.6
30/07:00am 13.1 10.4 10.4 84 1.4 NW 15 20 8 11 1017.2 - 0.6
30/06:30am 13.6 10.6 10.5 81 1.6 NW 17 22 9 12 1017.2 1017.2 0.6
30/06:00am 14.2 10.9 10.8 80 1.8 NW 19 28 10 15 1017.0 1017.0 0.6
30/05:30am 14.4 12.4 10.2 76 2.2 NW 11 20 6 11 1016.6 1016.6 0.6
30/05:00am 14.5 11.3 9.9 74 2.4 WNW 17 24 9 13 1016.6 - 0.6
30/04:30am 13.9 11.2 10.5 80 1.8 WNW 15 22 8 12 1016.6 1016.6 0.6
30/04:00am 14.4 11.0 10.4 77 2.1 WNW 19 24 10 13 1017.0 - 0.6
30/03:30am 13.7 10.4 10.8 83 1.5 WNW 19 28 10 15 1016.8 1016.8 0.6
30/03:00am 14.2 10.8 10.6 79 1.9 W 19 30 10 16 1017.0 1017.0 0.6
30/02:30am 14.1 10.7 10.7 80 1.8 WNW 19 26 10 14 1017.1 1017.1 0.6
30/02:00am 13.8 10.7 10.3 79 1.8 NW 17 24 9 13 1017.4 - 0.6
30/01:30am 13.5 10.5 10.6 82 1.5 WNW 17 24 9 13 1017.6 1017.6 0.6
30/01:00am 13.6 10.6 10.5 81 1.6 NW 17 22 9 12 1017.6 - 0.6
30/12:30am 14.2 11.3 11.0 81 1.7 NW 17 26 9 14 1017.7 1017.7 0.6
30/12:00am 14.6 11.4 11.2 80 1.8 WNW 19 26 10 14 1017.9 1017.9 0.6
 
Date/Time
CST
Tmp

°C
App
Tmp
°C
Dew
Point
°C
Rel
Hum
%
Delta-T

°C
Wind Press
QNH
hPa
Press
MSL
hPa
Rain
since
9 am
mm
Dir
 
Spd
km/h
Gust
km/h
Spd
kts
Gust
kts
29/11:30pm 14.6 11.1 10.8 78 2.0 WNW 20 30 11 16 1018.0 1018.0 0.6
29/11:00pm 14.7 11.3 11.3 80 1.8 NW 20 32 11 17 1017.8 - 0.6
29/10:30pm 14.9 11.8 11.7 81 1.7 NW 19 26 10 14 1017.9 1017.9 0.6
29/10:00pm 14.9 11.7 11.3 79 1.9 WNW 19 26 10 14 1018.0 - 0.6
29/09:30pm 14.4 11.2 11.4 82 1.6 WNW 19 26 10 14 1018.0 1018.0 0.6
29/09:00pm 14.4 12.2 12.2 87 1.2 NW 15 20 8 11 1018.0 1018.0 0.6
29/08:30pm 14.8 12.1 11.8 82 1.6 WNW 17 28 9 15 1017.8 1017.8 0.6
29/08:00pm 14.5 12.5 11.5 82 1.6 WNW 13 19 7 10 1017.5 - 0.6
29/07:30pm 13.8 12.2 12.7 93 0.6 NW 13 20 7 11 1017.5 1017.5 0.6
29/07:00pm 14.7 12.3 12.7 88 1.1 NW 17 24 9 13 1017.0 - 0.2
29/06:30pm 15.4 13.2 12.1 81 1.8 NW 15 24 8 13 1016.7 1016.7 0.2
29/06:00pm 15.2 13.6 12.7 85 1.4 NW 13 24 7 13 1016.6 1016.6 0.2
29/05:30pm 15.2 13.5 12.5 84 1.5 WNW 13 20 7 11 1016.5 1016.5 0.2
29/05:00pm 15.8 13.5 13.1 84 1.5 WNW 17 26 9 14 1016.4 - 0.2
29/04:30pm 16.3 15.0 13.6 84 1.5 NW 13 19 7 10 1015.9 1015.9 0.2
29/04:00pm 16.2 13.6 13.7 85 1.4 WNW 20 32 11 17 1015.8 - 0.2
29/03:30pm 16.3 13.7 13.8 85 1.4 WNW 20 32 11 17 1015.5 1015.5 0.2
29/03:00pm 16.5 13.6 14.0 85 1.4 NW 22 33 12 18 1015.5 1015.5 0.2
29/02:30pm 16.5 14.0 14.0 85 1.4 WNW 20 39 11 21 1015.3 1015.3 0.2
29/02:00pm 17.0 14.2 14.2 83 1.6 WNW 22 48 12 26 1015.1 - 0.2
29/01:30pm 17.1 13.1 14.1 82 1.7 WNW 28 48 15 26 1015.1 1015.1 0.2
29/01:00pm 16.4 12.3 13.9 85 1.4 WNW 28 46 15 25 1015.0 - 0.2
29/12:31pm 16.3 12.1 13.6 84 1.5 NW 28 46 15 25 1015.0 - 0.2
29/12:30pm 16.4 12.6 13.7 84 1.5 NW 26 46 14 25 1015.1 1015.1 0.2
29/12:21pm 16.4 12.3 13.9 85 1.4 NW 28 46 15 25 1015.2 - 0.2
29/12:00pm 16.4 11.5 13.7 84 1.5 WNW 32 46 17 25 1015.4 1015.4 0.2
29/11:45am 16.3 12.1 13.5 83 1.6 WNW 28 46 15 25 1015.7 - 0.2
29/11:30am 16.3 12.5 13.6 84 1.5 NW 26 43 14 23 1015.9 1015.9 0.2
29/11:00am 16.7 12.2 13.9 83 1.6 NW 30 41 16 22 1015.9 - 0.2
29/10:30am 16.4 11.8 12.2 76 2.3 NW 28 43 15 23 1015.8 1015.8 0.2
29/10:00am 15.8 10.3 11.7 76 2.2 WNW 32 50 17 27 1015.9 - 0.2
29/09:55am 15.7 10.7 11.0 73 2.5 WNW 28 46 15 25 1015.8 - 0.2
29/09:30am 15.2 11.4 11.1 76 2.2 NW 22 32 12 17 1015.6 1015.6 0.0
29/09:00am 14.3 12.8 10.7 79 1.9 WSW 9 17 5 9 1015.6 1015.6 -
29/08:57am 14.2 7.8 10.6 79 1.9 WSW 35 59 19 32 1015.6 - -
29/08:30am 13.9 10.3 10.5 80 1.8 NW 20 30 11 16 1015.2 1015.2 -
29/08:00am 13.2 10.8 9.9 80 1.7 NNW 13 20 7 11 1015.2 - -
29/07:30am 12.2 8.8 9.2 82 1.5 NNW 17 24 9 13 1015.1 1015.1 -
29/07:00am 12.6 8.8 9.2 80 1.7 NW 19 26 10 14 1015.0 - -
29/06:30am 12.0 8.6 9.2 83 1.4 NNW 17 22 9 12 1014.5 1014.5 -
29/06:00am 12.4 9.1 9.4 82 1.5 NW 17 20 9 11 1014.7 1014.7 -
29/05:30am 12.6 9.0 9.9 83 1.4 NW 19 28 10 15 1015.0 1015.0 -
29/05:00am 12.7 10.3 10.2 85 1.3 WNW 13 24 7 13 1014.1 - -
29/04:30am 13.5 8.4 10.6 82 1.5 WNW 28 43 15 23 1013.4 1013.4 -
29/04:13am 13.5 8.4 10.6 82 1.5 WNW 28 46 15 25 1013.3 - -
29/04:00am 13.6 7.7 10.5 81 1.6 WNW 32 46 17 25 1013.3 - -
29/03:50am 13.7 7.7 10.7 82 1.6 WNW 33 54 18 29 1013.2 - -
29/03:30am 13.6 8.1 10.5 81 1.6 WNW 30 43 16 23 1013.5 1013.5 -
29/03:00am 13.8 7.4 8.6 71 2.6 WNW 32 50 17 27 1013.2 1013.2 0.0
29/02:30am 13.7 8.8 6.9 63 3.3 WNW 22 41 12 22 1013.9 1013.9 -
29/02:00am 13.0 9.7 6.3 64 3.2 WNW 13 22 7 12 1014.2 - -
29/01:30am 12.5 9.9 5.9 64 3.1 NW 9 15 5 8 1014.6 1014.6 -
29/01:00am 9.3 7.1 5.1 75 1.9 ENE 6 7 3 4 1014.9 - -
29/12:30am 8.7 6.5 5.4 80 1.5 NNE 6 9 3 5 1015.3 1015.3 -
29/12:00am 9.6 7.4 6.1 79 1.6 N 7 11 4 6 1015.6 1015.6 -
 
Date/Time
CST
Tmp

°C
App
Tmp
°C
Dew
Point
°C
Rel
Hum
%
Delta-T

°C
Wind Press
QNH
hPa
Press
MSL
hPa
Rain
since
9 am
mm
Dir
 
Spd
km/h
Gust
km/h
Spd
kts
Gust
kts
28/11:30pm 9.4 7.5 6.8 84 1.2 N 6 9 3 5 1015.8 1015.8 -
28/11:00pm 9.6 7.2 7.1 84 1.2 NNW 9 13 5 7 1016.1 - -
28/10:30pm 8.9 6.5 7.2 89 0.8 NNW 9 13 5 7 1016.3 1016.3 -
28/10:00pm 10.0 7.0 7.7 86 1.1 NNW 13 19 7 10 1016.4 - -
28/09:30pm 10.3 6.6 8.0 86 1.1 NNW 17 26 9 14 1016.4 1016.4 -
28/09:00pm 10.1 7.2 8.2 88 0.9 NNW 13 17 7 9 1016.5 1016.5 0.0
28/08:30pm 10.8 7.3 8.8 87 1.0 NNW 17 20 9 11 1016.3 1016.3 -
28/08:00pm 10.6 7.8 8.6 87 1.0 NNW 13 15 7 8 1016.2 - -
28/07:30pm 11.1 8.4 8.9 86 1.1 NNW 13 17 7 9 1016.0 1016.0 -
28/07:00pm 12.3 9.7 9.5 83 1.4 NNW 13 17 7 9 1016.0 - -
28/06:30pm 11.1 8.2 9.5 90 0.8 N 15 20 8 11 1015.7 1015.7 -
28/06:00pm 13.0 10.0 10.5 85 1.3 NNW 17 22 9 12 1015.7 1015.7 -
28/05:30pm 13.8 10.8 10.8 82 1.6 NW 17 22 9 12 1015.7 1015.7 -
28/05:00pm 14.5 12.1 11.5 82 1.6 N 15 19 8 10 1015.3 - -
28/04:30pm 16.1 13.6 12.3 78 2.1 NNW 17 24 9 13 1015.0 1015.0 -
28/04:00pm 16.6 14.2 12.6 77 2.2 NW 17 24 9 13 1015.4 - -
28/03:30pm 17.2 14.2 12.5 74 2.6 W 20 30 11 16 1015.6 1015.6 -
28/03:00pm 17.5 15.2 11.6 68 3.2 WNW 15 26 8 14 1015.5 1015.5 -
28/02:30pm 17.2 14.7 12.3 73 2.7 W 17 28 9 15 1015.7 1015.7 -
28/02:00pm 17.9 14.6 12.9 72 2.8 NW 22 33 12 18 1015.5 - 0.0
28/01:30pm 17.7 14.7 12.7 72 2.8 NW 20 28 11 15 1015.6 1015.6 0.0
28/01:00pm 16.9 14.0 12.2 74 2.6 NNW 19 30 10 16 1016.0 - 0.0
28/12:30pm 16.1 13.0 11.7 75 2.4 NW 19 26 10 14 1016.6 1016.6 0.0
28/12:00pm 15.0 12.9 11.1 77 2.1 N 13 17 7 9 1017.1 1017.1 0.0
28/11:30am 15.1 12.5 10.8 75 2.3 N 15 19 8 10 1017.5 1017.5 0.0
28/11:00am 15.5 13.0 11.0 74 2.4 NNW 15 19 8 10 1017.9 - 0.0
28/10:30am 14.6 12.3 10.4 76 2.2 N 13 19 7 10 1018.4 - 0.0
28/10:00am 13.4 10.0 9.0 75 2.2 NNE 17 20 9 11 1018.4 - 0.0
28/09:30am 12.5 8.6 8.5 76 2.0 N 19 22 10 12 1018.5 - 0.0
28/09:00am 11.8 8.1 8.1 78 1.8 N 17 20 9 11 1018.3 1018.4 0.0
28/08:30am 10.8 7.4 7.7 81 1.5 N 15 19 8 10 1018.2 - 0.0
28/08:00am 10.4 7.2 7.0 79 1.6 NNW 13 17 7 9 1018.3 - 0.0
28/07:30am 9.7 6.1 6.7 81 1.4 N 15 19 8 10 1018.0 - 0.0
28/07:00am 9.1 5.8 6.3 83 1.3 NNW 13 17 7 9 1017.6 - 0.0
28/06:30am 8.4 5.3 5.7 83 1.2 NNW 11 15 6 8 1017.5 - 0.0
28/06:00am 9.4 5.6 5.7 78 1.7 NW 15 19 8 10 1017.3 1017.4 0.0
28/05:30am 9.1 5.3 5.8 80 1.5 N 15 17 8 9 1016.9 - 0.0
28/05:00am 8.9 5.5 5.8 81 1.4 N 13 15 7 8 1017.1 - 0.0
28/04:30am 9.1 5.6 5.6 79 1.6 NNW 13 15 7 8 1017.3 - 0.0
28/04:00am 8.7 5.1 5.1 78 1.6 NNW 13 17 7 9 1017.5 - 0.0
28/03:30am 8.7 4.7 5.1 78 1.6 NNW 15 19 8 10 1017.5 - 0.0
28/03:00am 8.2 3.9 5.1 81 1.4 NNW 17 20 9 11 1017.5 1017.6 0.0
28/02:30am 8.0 4.5 5.6 85 1.1 NNW 13 15 7 8 1017.6 - 0.0
28/02:00am 8.1 3.9 5.9 86 1.0 N 17 20 9 11 1017.7 - 0.0
28/01:30am 8.9 4.4 6.1 82 1.3 N 19 22 10 12 1017.7 - 0.0
28/01:00am 9.6 5.0 6.4 80 1.5 NNW 20 22 11 12 1017.8 - 0.0
28/12:30am 7.5 4.5 5.9 90 0.7 N 11 15 6 8 1018.2 - 0.0
28/12:00am 8.5 5.6 6.3 86 1.0 N 11 17 6 9 1018.5 1018.6 0.0
 
Date/Time
CST
Tmp

°C
App
Tmp
°C
Dew
Point
°C
Rel
Hum
%
Delta-T

°C
Wind Press
QNH
hPa
Press
MSL
hPa
Rain
since
9 am
mm
Dir
 
Spd
km/h
Gust
km/h
Spd
kts
Gust
kts
27/11:30pm 10.7 6.4 6.9 77 1.8 NNW 19 22 10 12 1018.9 - 0.0
27/11:00pm 10.6 6.7 7.0 78 1.7 N 17 20 9 11 1019.1 - 0.0
27/10:30pm 10.7 6.8 7.1 78 1.7 N 17 20 9 11 1019.3 - 0.0
27/10:00pm 10.8 7.0 7.5 80 1.6 N 17 20 9 11 1019.3 - 0.0
27/09:30pm 10.9 7.1 7.6 80 1.6 NNE 17 19 9 10 1019.6 - 0.0
27/09:00pm 10.2 8.0 7.9 86 1.1 NE 9 11 5 6 1019.6 1019.7 0.0
27/08:30pm 10.6 8.1 8.3 86 1.1 N 11 15 6 8 1019.7 - 0.0
27/08:00pm 11.7 8.1 8.5 81 1.6 NNE 17 19 9 10 1019.6 - 0.0
27/07:30pm 12.8 8.8 8.4 74 2.2 NNE 19 22 10 12 1019.9 - 0.0
27/07:00pm 12.8 8.9 8.8 76 2.0 NNE 19 20 10 11 1019.8 - 0.0
27/06:30pm 13.1 9.3 9.1 77 2.0 N 19 24 10 13 1019.9 - 0.0
27/06:00pm 14.1 10.1 9.0 71 2.6 NNE 20 26 11 14 1019.7 1019.8 0.0
27/05:30pm 13.2 10.4 10.1 81 1.6 NNE 15 17 8 9 1019.8 - 0.0
27/05:00pm 13.5 11.5 11.6 88 1.0 NNE 13 15 7 8 1019.6 - 0.0
27/04:30pm 15.9 14.7 12.8 82 1.7 N 11 17 6 9 1019.7 - 0.0
27/04:00pm 15.9 14.3 13.8 87 1.2 N 15 19 8 10 1019.6 - 0.0
27/03:30pm 16.3 13.1 14.2 87 1.2 NNW 24 30 13 16 1019.6 - 0.0
27/03:00pm 16.6 14.2 14.3 86 1.3 NNW 20 30 11 16 1019.9 1020.0 0.0

Latest Capital City Observations: Canberra | Sydney | Melbourne | Brisbane | Adelaide | Perth | Hobart | Darwin

Other Formats:

Comma delimited format used in spreadsheet applications
http://www.bom.gov.au/fwo/IDS60901/IDS60901.95818.axf

JavaScript Object Notation format (JSON) in row-major order
http://www.bom.gov.au/fwo/IDS60901/IDS60901.95818.json